Fairmount City, Pennsylvania
Current Conditions -  °F | °C
As of 9:53 PM on Wednesday 22 Oct 2014 (Local Time) from KDUJ Reporting Station
Overcast Overcast  
Wind Chill: 36°   Ceiling: 1100
Heat Index: 43°   Visibility: 10mi
Dew Point: 39°   Wind: 14mph
Humidity: 86%   Direction: 340°NNW
Pressure: 30.12"   Gusts: NA
Location:  41.01°N, 79.32°W
Report Text: KDUJ 230153Z AUTO 34012KT 10SM OVC011 06/04 A3012 RMK AO2 SLP208 T00610039
Loading
Personal Weather Stations






























Interactive Weather Map
Tropical Storm Tracking
New forecast layout! Learn more

10-Day Weather Forecast

Advertisements
Track Severe Weather on mobile